sensor_id;sensor_type;location;lat;lon;timestamp;temperature;humidity
20200;DHT22;36284;37.236;-121.934;2023-07-20T00:01:40;30.10;99.90
20200;DHT22;36284;37.236;-121.934;2023-07-20T00:04:11;30.60;99.90
20200;DHT22;36284;37.236;-121.934;2023-07-20T00:06:38;30.50;99.90
20200;DHT22;36284;37.236;-121.934;2023-07-20T00:09:07;30.40;99.90
20200;DHT22;36284;37.236;-121.934;2023-07-20T00:11:37;30.00;99.90
20200;DHT22;36284;37.236;-121.934;2023-07-20T00:14:05;29.90;99.90
20200;DHT22;36284;37.236;-121.934;2023-07-20T00:16:32;30.00;99.90
20200;DHT22;36284;37.236;-121.934;2023-07-20T00:19:00;29.50;99.90
20200;DHT22;36284;37.236;-121.934;2023-07-20T00:21:27;28.90;99.90
20200;DHT22;36284;37.236;-121.934;2023-07-20T00:23:54;29.80;99.90
20200;DHT22;36284;37.236;-121.934;2023-07-20T00:26:21;29.20;99.90
20200;DHT22;36284;37.236;-121.934;2023-07-20T00:28:50;29.60;99.90
20200;DHT22;36284;37.236;-121.934;2023-07-20T00:31:18;29.10;99.90
20200;DHT22;36284;37.236;-121.934;2023-07-20T00:33:45;29.30;99.90
20200;DHT22;36284;37.236;-121.934;2023-07-20T00:36:12;29.30;99.90
20200;DHT22;36284;37.236;-121.934;2023-07-20T00:38:39;29.00;99.90
20200;DHT22;36284;37.236;-121.934;2023-07-20T00:41:07;29.10;99.90
20200;DHT22;36284;37.236;-121.934;2023-07-20T00:43:34;29.60;99.90
20200;DHT22;36284;37.236;-121.934;2023-07-20T00:46:01;29.00;99.90
20200;DHT22;36284;37.236;-121.934;2023-07-20T00:48:30;28.90;99.90
20200;DHT22;36284;37.236;-121.934;2023-07-20T00:50:58;28.90;99.90
20200;DHT22;36284;37.236;-121.934;2023-07-20T00:53:26;28.50;99.90
20200;DHT22;36284;37.236;-121.934;2023-07-20T00:55:54;28.60;99.90
20200;DHT22;36284;37.236;-121.934;2023-07-20T00:58:22;28.80;99.90
20200;DHT22;36284;37.236;-121.934;2023-07-20T01:00:49;28.60;99.90
20200;DHT22;36284;37.236;-121.934;2023-07-20T01:03:17;28.30;99.90
20200;DHT22;36284;37.236;-121.934;2023-07-20T01:06:18;28.30;99.90
20200;DHT22;36284;37.236;-121.934;2023-07-20T01:08:57;28.40;99.90
20200;DHT22;36284;37.236;-121.934;2023-07-20T01:11:38;27.80;99.90
20200;DHT22;36284;37.236;-121.934;2023-07-20T01:14:12;27.90;99.90
20200;DHT22;36284;37.236;-121.934;2023-07-20T01:16:43;27.90;99.90
20200;DHT22;36284;37.236;-121.934;2023-07-20T01:19:12;27.80;99.90
20200;DHT22;36284;37.236;-121.934;2023-07-20T01:25:07;27.80;99.90
20200;DHT22;36284;37.236;-121.934;2023-07-20T01:28:09;27.70;99.90
20200;DHT22;36284;37.236;-121.934;2023-07-20T01:33:32;27.30;99.90
20200;DHT22;36284;37.236;-121.934;2023-07-20T01:36:00;27.20;99.90
20200;DHT22;36284;37.236;-121.934;2023-07-20T01:38:27;27.20;99.90
20200;DHT22;36284;37.236;-121.934;2023-07-20T01:40:55;26.80;99.90
20200;DHT22;36284;37.236;-121.934;2023-07-20T01:43:22;26.70;99.90
20200;DHT22;36284;37.236;-121.934;2023-07-20T01:45:49;26.70;99.90
20200;DHT22;36284;37.236;-121.934;2023-07-20T01:48:16;26.70;99.90
20200;DHT22;36284;37.236;-121.934;2023-07-20T01:50:44;26.50;99.90
20200;DHT22;36284;37.236;-121.934;2023-07-20T01:53:11;26.30;99.90
20200;DHT22;36284;37.236;-121.934;2023-07-20T01:55:38;26.20;99.90
20200;DHT22;36284;37.236;-121.934;2023-07-20T01:58:05;26.10;99.90
20200;DHT22;36284;37.236;-121.934;2023-07-20T02:00:33;26.00;99.90
20200;DHT22;36284;37.236;-121.934;2023-07-20T02:03:00;25.90;99.90
20200;DHT22;36284;37.236;-121.934;2023-07-20T02:05:26;25.90;99.90
20200;DHT22;36284;37.236;-121.934;2023-07-20T02:07:54;25.70;99.90
20200;DHT22;36284;37.236;-121.934;2023-07-20T02:10:21;25.50;99.90
20200;DHT22;36284;37.236;-121.934;2023-07-20T02:12:48;25.50;99.90
20200;DHT22;36284;37.236;-121.934;2023-07-20T02:15:15;25.10;99.90
20200;DHT22;36284;37.236;-121.934;2023-07-20T02:17:45;25.30;99.90
20200;DHT22;36284;37.236;-121.934;2023-07-20T02:20:12;25.10;99.90
20200;DHT22;36284;37.236;-121.934;2023-07-20T02:22:40;25.10;99.90
20200;DHT22;36284;37.236;-121.934;2023-07-20T02:25:08;25.10;99.90
20200;DHT22;36284;37.236;-121.934;2023-07-20T02:27:35;24.90;99.90
20200;DHT22;36284;37.236;-121.934;2023-07-20T02:30:03;24.70;99.90
20200;DHT22;36284;37.236;-121.934;2023-07-20T02:32:31;24.70;99.90
20200;DHT22;36284;37.236;-121.934;2023-07-20T02:35:01;24.50;99.90
20200;DHT22;36284;37.236;-121.934;2023-07-20T02:37:30;24.30;99.90
20200;DHT22;36284;37.236;-121.934;2023-07-20T02:39:57;24.30;99.90
20200;DHT22;36284;37.236;-121.934;2023-07-20T02:42:24;24.00;99.90
20200;DHT22;36284;37.236;-121.934;2023-07-20T02:44:52;24.00;99.90
20200;DHT22;36284;37.236;-121.934;2023-07-20T02:47:19;23.90;99.90
20200;DHT22;36284;37.236;-121.934;2023-07-20T02:49:46;23.60;99.90
20200;DHT22;36284;37.236;-121.934;2023-07-20T02:52:13;23.50;99.90
20200;DHT22;36284;37.236;-121.934;2023-07-20T02:54:40;23.50;99.90
20200;DHT22;36284;37.236;-121.934;2023-07-20T02:57:07;23.40;99.90
20200;DHT22;36284;37.236;-121.934;2023-07-20T02:59:34;23.30;99.90
20200;DHT22;36284;37.236;-121.934;2023-07-20T03:02:01;23.10;99.90
20200;DHT22;36284;37.236;-121.934;2023-07-20T03:04:28;22.70;99.90
20200;DHT22;36284;37.236;-121.934;2023-07-20T03:06:55;22.60;99.90
20200;DHT22;36284;37.236;-121.934;2023-07-20T03:09:22;22.60;99.90
20200;DHT22;36284;37.236;-121.934;2023-07-20T03:11:50;22.30;99.90
20200;DHT22;36284;37.236;-121.934;2023-07-20T03:14:17;22.20;99.90
20200;DHT22;36284;37.236;-121.934;2023-07-20T03:16:44;22.10;99.90
20200;DHT22;36284;37.236;-121.934;2023-07-20T03:19:11;22.00;99.90
20200;DHT22;36284;37.236;-121.934;2023-07-20T03:21:38;21.80;99.90
20200;DHT22;36284;37.236;-121.934;2023-07-20T03:24:08;21.60;99.90
20200;DHT22;36284;37.236;-121.934;2023-07-20T03:26:35;21.40;99.90
20200;DHT22;36284;37.236;-121.934;2023-07-20T03:29:04;21.30;99.90
20200;DHT22;36284;37.236;-121.934;2023-07-20T03:31:32;21.20;99.90
20200;DHT22;36284;37.236;-121.934;2023-07-20T03:33:58;21.20;99.90
20200;DHT22;36284;37.236;-121.934;2023-07-20T03:36:25;21.10;99.90
20200;DHT22;36284;37.236;-121.934;2023-07-20T03:38:52;20.90;99.90
20200;DHT22;36284;37.236;-121.934;2023-07-20T03:41:19;20.90;99.90
20200;DHT22;36284;37.236;-121.934;2023-07-20T03:46:15;19.80;99.90
20200;DHT22;36284;37.236;-121.934;2023-07-20T03:48:42;20.40;99.90
20200;DHT22;36284;37.236;-121.934;2023-07-20T03:51:09;20.30;99.90
20200;DHT22;36284;37.236;-121.934;2023-07-20T03:53:36;20.30;99.90
20200;DHT22;36284;37.236;-121.934;2023-07-20T03:56:03;20.20;99.90
20200;DHT22;36284;37.236;-121.934;2023-07-20T03:58:30;20.20;99.90
20200;DHT22;36284;37.236;-121.934;2023-07-20T04:00:57;20.00;99.90
20200;DHT22;36284;37.236;-121.934;2023-07-20T04:03:24;19.90;99.90
20200;DHT22;36284;37.236;-121.934;2023-07-20T04:05:54;19.90;99.90
20200;DHT22;36284;37.236;-121.934;2023-07-20T04:08:24;19.80;99.90
20200;DHT22;36284;37.236;-121.934;2023-07-20T04:10:51;19.70;99.90
20200;DHT22;36284;37.236;-121.934;2023-07-20T04:13:18;19.60;99.90
20200;DHT22;36284;37.236;-121.934;2023-07-20T04:15:45;19.50;99.90
20200;DHT22;36284;37.236;-121.934;2023-07-20T04:18:12;19.50;99.90
20200;DHT22;36284;37.236;-121.934;2023-07-20T04:20:39;19.50;99.90
20200;DHT22;36284;37.236;-121.934;2023-07-20T04:23:06;19.40;99.90
20200;DHT22;36284;37.236;-121.934;2023-07-20T04:25:33;19.30;99.90
20200;DHT22;36284;37.236;-121.934;2023-07-20T04:28:09;19.20;99.90
20200;DHT22;36284;37.236;-121.934;2023-07-20T04:30:37;19.10;99.90
20200;DHT22;36284;37.236;-121.934;2023-07-20T04:33:04;19.00;99.90
20200;DHT22;36284;37.236;-121.934;2023-07-20T04:35:51;19.00;99.90
20200;DHT22;36284;37.236;-121.934;2023-07-20T04:38:19;18.90;99.90
20200;DHT22;36284;37.236;-121.934;2023-07-20T04:43:15;18.70;99.90
20200;DHT22;36284;37.236;-121.934;2023-07-20T04:45:42;18.60;99.90
20200;DHT22;36284;37.236;-121.934;2023-07-20T04:48:10;18.60;99.90
20200;DHT22;36284;37.236;-121.934;2023-07-20T04:50:45;18.50;99.90
20200;DHT22;36284;37.236;-121.934;2023-07-20T04:53:13;18.50;99.90
20200;DHT22;36284;37.236;-121.934;2023-07-20T04:55:40;18.30;99.90
20200;DHT22;36284;37.236;-121.934;2023-07-20T04:58:07;18.20;99.90
20200;DHT22;36284;37.236;-121.934;2023-07-20T05:00:35;18.20;99.90
20200;DHT22;36284;37.236;-121.934;2023-07-20T05:03:02;18.20;99.90
20200;DHT22;36284;37.236;-121.934;2023-07-20T05:05:31;18.10;99.90
20200;DHT22;36284;37.236;-121.934;2023-07-20T05:07:59;18.00;99.90
20200;DHT22;36284;37.236;-121.934;2023-07-20T05:10:26;17.90;99.90
20200;DHT22;36284;37.236;-121.934;2023-07-20T05:12:53;17.80;99.90
20200;DHT22;36284;37.236;-121.934;2023-07-20T05:15:20;17.80;99.90
20200;DHT22;36284;37.236;-121.934;2023-07-20T05:17:47;17.70;99.90
20200;DHT22;36284;37.236;-121.934;2023-07-20T05:20:15;17.70;99.90
20200;DHT22;36284;37.236;-121.934;2023-07-20T05:22:42;17.60;99.90
20200;DHT22;36284;37.236;-121.934;2023-07-20T05:25:10;17.50;99.90
20200;DHT22;36284;37.236;-121.934;2023-07-20T05:27:38;17.50;99.90
20200;DHT22;36284;37.236;-121.934;2023-07-20T05:30:06;17.40;99.90
20200;DHT22;36284;37.236;-121.934;2023-07-20T05:32:34;17.40;99.90
20200;DHT22;36284;37.236;-121.934;2023-07-20T05:35:01;17.40;99.90
20200;DHT22;36284;37.236;-121.934;2023-07-20T05:37:28;17.40;99.90
20200;DHT22;36284;37.236;-121.934;2023-07-20T05:39:55;17.30;99.90
20200;DHT22;36284;37.236;-121.934;2023-07-20T05:42:22;17.20;99.90
20200;DHT22;36284;37.236;-121.934;2023-07-20T05:44:49;17.20;99.90
20200;DHT22;36284;37.236;-121.934;2023-07-20T05:47:19;17.20;99.90
20200;DHT22;36284;37.236;-121.934;2023-07-20T05:49:46;17.10;99.90
20200;DHT22;36284;37.236;-121.934;2023-07-20T05:52:13;16.90;99.90
20200;DHT22;36284;37.236;-121.934;2023-07-20T05:54:40;16.80;99.90
20200;DHT22;36284;37.236;-121.934;2023-07-20T05:57:08;16.80;99.90
20200;DHT22;36284;37.236;-121.934;2023-07-20T05:59:35;16.80;99.90
20200;DHT22;36284;37.236;-121.934;2023-07-20T06:02:02;16.70;99.90
20200;DHT22;36284;37.236;-121.934;2023-07-20T06:04:29;16.60;99.90
20200;DHT22;36284;37.236;-121.934;2023-07-20T06:06:56;16.60;99.90
20200;DHT22;36284;37.236;-121.934;2023-07-20T06:09:23;16.50;99.90
20200;DHT22;36284;37.236;-121.934;2023-07-20T06:11:50;16.40;99.90
20200;DHT22;36284;37.236;-121.934;2023-07-20T06:14:17;16.40;99.90
20200;DHT22;36284;37.236;-121.934;2023-07-20T06:16:45;16.30;99.90
20200;DHT22;36284;37.236;-121.934;2023-07-20T06:19:11;16.20;99.90
20200;DHT22;36284;37.236;-121.934;2023-07-20T06:21:39;16.10;99.90
20200;DHT22;36284;37.236;-121.934;2023-07-20T06:24:06;16.20;99.90
20200;DHT22;36284;37.236;-121.934;2023-07-20T06:26:33;16.10;99.90
20200;DHT22;36284;37.236;-121.934;2023-07-20T06:29:08;16.10;99.90
20200;DHT22;36284;37.236;-121.934;2023-07-20T06:31:38;16.00;99.90
20200;DHT22;36284;37.236;-121.934;2023-07-20T06:34:05;15.90;99.90
20200;DHT22;36284;37.236;-121.934;2023-07-20T06:36:32;15.90;99.90
20200;DHT22;36284;37.236;-121.934;2023-07-20T06:38:59;15.90;99.90
20200;DHT22;36284;37.236;-121.934;2023-07-20T06:41:26;15.80;99.90
20200;DHT22;36284;37.236;-121.934;2023-07-20T06:43:52;15.80;99.90
20200;DHT22;36284;37.236;-121.934;2023-07-20T06:46:25;15.60;99.90
20200;DHT22;36284;37.236;-121.934;2023-07-20T06:48:53;15.60;99.90
20200;DHT22;36284;37.236;-121.934;2023-07-20T06:51:20;15.50;99.90
20200;DHT22;36284;37.236;-121.934;2023-07-20T06:53:47;15.50;99.90
20200;DHT22;36284;37.236;-121.934;2023-07-20T06:56:14;15.60;99.90
20200;DHT22;36284;37.236;-121.934;2023-07-20T06:58:41;15.50;99.90
20200;DHT22;36284;37.236;-121.934;2023-07-20T07:01:08;15.50;99.90
20200;DHT22;36284;37.236;-121.934;2023-07-20T07:03:35;15.40;99.90
20200;DHT22;36284;37.236;-121.934;2023-07-20T07:06:03;15.50;99.90
20200;DHT22;36284;37.236;-121.934;2023-07-20T07:08:30;15.40;99.90
20200;DHT22;36284;37.236;-121.934;2023-07-20T07:10:57;15.30;99.90
20200;DHT22;36284;37.236;-121.934;2023-07-20T07:13:24;15.20;99.90
20200;DHT22;36284;37.236;-121.934;2023-07-20T07:15:51;15.20;99.90
20200;DHT22;36284;37.236;-121.934;2023-07-20T07:18:18;15.10;99.90
20200;DHT22;36284;37.236;-121.934;2023-07-20T07:20:53;15.10;99.90
20200;DHT22;36284;37.236;-121.934;2023-07-20T07:23:20;15.10;99.90
20200;DHT22;36284;37.236;-121.934;2023-07-20T07:25:48;15.10;99.90
20200;DHT22;36284;37.236;-121.934;2023-07-20T07:28:15;15.00;99.90
20200;DHT22;36284;37.236;-121.934;2023-07-20T07:30:42;15.00;99.90
20200;DHT22;36284;37.236;-121.934;2023-07-20T07:33:09;15.00;99.90
20200;DHT22;36284;37.236;-121.934;2023-07-20T07:35:36;15.10;99.90
20200;DHT22;36284;37.236;-121.934;2023-07-20T07:38:03;15.00;99.90
20200;DHT22;36284;37.236;-121.934;2023-07-20T07:40:32;15.00;99.90
20200;DHT22;36284;37.236;-121.934;2023-07-20T07:42:59;15.00;99.90
20200;DHT22;36284;37.236;-121.934;2023-07-20T07:45:26;14.90;99.90
20200;DHT22;36284;37.236;-121.934;2023-07-20T07:50:20;14.70;99.90
20200;DHT22;36284;37.236;-121.934;2023-07-20T07:52:47;14.70;99.90
20200;DHT22;36284;37.236;-121.934;2023-07-20T07:55:14;14.70;99.90
20200;DHT22;36284;37.236;-121.934;2023-07-20T07:57:44;14.60;99.90
20200;DHT22;36284;37.236;-121.934;2023-07-20T08:00:11;14.50;99.90
20200;DHT22;36284;37.236;-121.934;2023-07-20T08:02:41;14.40;99.90
20200;DHT22;36284;37.236;-121.934;2023-07-20T08:05:09;14.40;99.90
20200;DHT22;36284;37.236;-121.934;2023-07-20T08:07:36;14.50;99.90
20200;DHT22;36284;37.236;-121.934;2023-07-20T08:10:04;14.50;99.90
20200;DHT22;36284;37.236;-121.934;2023-07-20T08:12:31;14.40;99.90
20200;DHT22;36284;37.236;-121.934;2023-07-20T08:14:58;14.40;99.90
20200;DHT22;36284;37.236;-121.934;2023-07-20T08:17:25;14.30;99.90
20200;DHT22;36284;37.236;-121.934;2023-07-20T08:19:52;14.30;99.90
20200;DHT22;36284;37.236;-121.934;2023-07-20T08:22:19;14.30;99.90
20200;DHT22;36284;37.236;-121.934;2023-07-20T08:24:46;14.40;99.90
20200;DHT22;36284;37.236;-121.934;2023-07-20T08:27:13;14.40;99.90
20200;DHT22;36284;37.236;-121.934;2023-07-20T08:29:40;14.50;99.90
20200;DHT22;36284;37.236;-121.934;2023-07-20T08:32:08;14.40;99.90
20200;DHT22;36284;37.236;-121.934;2023-07-20T08:34:35;14.30;99.90
20200;DHT22;36284;37.236;-121.934;2023-07-20T08:37:02;14.30;99.90
20200;DHT22;36284;37.236;-121.934;2023-07-20T08:39:29;14.30;99.90
20200;DHT22;36284;37.236;-121.934;2023-07-20T08:41:55;14.30;99.90
20200;DHT22;36284;37.236;-121.934;2023-07-20T08:44:25;14.10;99.90
20200;DHT22;36284;37.236;-121.934;2023-07-20T08:46:52;14.10;99.90
20200;DHT22;36284;37.236;-121.934;2023-07-20T08:49:20;14.10;99.90
20200;DHT22;36284;37.236;-121.934;2023-07-20T08:51:48;14.00;99.90
20200;DHT22;36284;37.236;-121.934;2023-07-20T08:54:16;13.80;99.90
20200;DHT22;36284;37.236;-121.934;2023-07-20T08:56:45;13.80;99.90
20200;DHT22;36284;37.236;-121.934;2023-07-20T08:59:17;13.80;99.90
20200;DHT22;36284;37.236;-121.934;2023-07-20T09:01:45;13.70;99.90
20200;DHT22;36284;37.236;-121.934;2023-07-20T09:04:13;13.70;99.90
20200;DHT22;36284;37.236;-121.934;2023-07-20T09:06:40;13.70;99.90
20200;DHT22;36284;37.236;-121.934;2023-07-20T09:09:07;13.80;99.90
20200;DHT22;36284;37.236;-121.934;2023-07-20T09:11:34;13.80;99.90
20200;DHT22;36284;37.236;-121.934;2023-07-20T09:14:08;13.80;99.90
20200;DHT22;36284;37.236;-121.934;2023-07-20T09:16:54;13.90;99.90
20200;DHT22;36284;37.236;-121.934;2023-07-20T09:19:22;13.90;99.90
20200;DHT22;36284;37.236;-121.934;2023-07-20T09:21:50;13.90;99.90
20200;DHT22;36284;37.236;-121.934;2023-07-20T09:24:20;13.80;99.90
20200;DHT22;36284;37.236;-121.934;2023-07-20T09:26:48;13.90;99.90
20200;DHT22;36284;37.236;-121.934;2023-07-20T09:29:20;13.80;99.90
20200;DHT22;36284;37.236;-121.934;2023-07-20T09:32:03;13.90;99.90
20200;DHT22;36284;37.236;-121.934;2023-07-20T09:34:31;13.80;99.90
20200;DHT22;36284;37.236;-121.934;2023-07-20T09:36:59;13.90;99.90
20200;DHT22;36284;37.236;-121.934;2023-07-20T09:39:27;13.80;99.90
20200;DHT22;36284;37.236;-121.934;2023-07-20T09:41:54;13.60;99.90
20200;DHT22;36284;37.236;-121.934;2023-07-20T09:44:21;13.60;99.90
20200;DHT22;36284;37.236;-121.934;2023-07-20T09:46:49;13.60;99.90
20200;DHT22;36284;37.236;-121.934;2023-07-20T09:49:17;13.60;99.90
20200;DHT22;36284;37.236;-121.934;2023-07-20T09:51:47;13.60;99.90
20200;DHT22;36284;37.236;-121.934;2023-07-20T09:54:15;13.60;99.90
20200;DHT22;36284;37.236;-121.934;2023-07-20T09:56:43;13.50;99.90
20200;DHT22;36284;37.236;-121.934;2023-07-20T09:59:11;13.60;99.90
20200;DHT22;36284;37.236;-121.934;2023-07-20T10:01:39;13.60;99.90
20200;DHT22;36284;37.236;-121.934;2023-07-20T10:04:09;13.50;99.90
20200;DHT22;36284;37.236;-121.934;2023-07-20T10:06:42;13.50;99.90
20200;DHT22;36284;37.236;-121.934;2023-07-20T10:09:10;13.40;99.90
20200;DHT22;36284;37.236;-121.934;2023-07-20T10:11:42;13.40;99.90
20200;DHT22;36284;37.236;-121.934;2023-07-20T10:14:12;13.40;99.90
20200;DHT22;36284;37.236;-121.934;2023-07-20T10:16:54;13.50;99.90
20200;DHT22;36284;37.236;-121.934;2023-07-20T10:19:46;13.70;99.90
20200;DHT22;36284;37.236;-121.934;2023-07-20T10:22:23;13.70;99.90
20200;DHT22;36284;37.236;-121.934;2023-07-20T10:24:52;13.90;99.90
20200;DHT22;36284;37.236;-121.934;2023-07-20T10:27:20;13.90;99.90
20200;DHT22;36284;37.236;-121.934;2023-07-20T10:29:48;13.90;99.90
20200;DHT22;36284;37.236;-121.934;2023-07-20T10:32:17;13.90;99.90
20200;DHT22;36284;37.236;-121.934;2023-07-20T10:34:51;13.90;99.90
20200;DHT22;36284;37.236;-121.934;2023-07-20T10:37:47;13.90;99.90
20200;DHT22;36284;37.236;-121.934;2023-07-20T10:40:33;14.10;99.90
20200;DHT22;36284;37.236;-121.934;2023-07-20T10:43:08;14.00;99.90
20200;DHT22;36284;37.236;-121.934;2023-07-20T10:45:42;14.00;99.90
20200;DHT22;36284;37.236;-121.934;2023-07-20T10:48:22;13.90;99.90
20200;DHT22;36284;37.236;-121.934;2023-07-20T10:51:11;14.00;99.90
20200;DHT22;36284;37.236;-121.934;2023-07-20T10:53:40;13.90;99.90
20200;DHT22;36284;37.236;-121.934;2023-07-20T10:56:12;13.90;99.90
20200;DHT22;36284;37.236;-121.934;2023-07-20T10:58:43;13.90;99.90
20200;DHT22;36284;37.236;-121.934;2023-07-20T11:01:14;13.80;99.90
20200;DHT22;36284;37.236;-121.934;2023-07-20T11:03:42;13.70;99.90
20200;DHT22;36284;37.236;-121.934;2023-07-20T11:08:57;13.60;99.90
20200;DHT22;36284;37.236;-121.934;2023-07-20T11:11:30;13.60;99.90
20200;DHT22;36284;37.236;-121.934;2023-07-20T11:16:43;13.50;99.90
20200;DHT22;36284;37.236;-121.934;2023-07-20T11:19:24;13.50;99.90
20200;DHT22;36284;37.236;-121.934;2023-07-20T11:21:56;13.40;99.90
20200;DHT22;36284;37.236;-121.934;2023-07-20T11:24:24;13.50;99.90
20200;DHT22;36284;37.236;-121.934;2023-07-20T11:26:52;13.50;99.90
20200;DHT22;36284;37.236;-121.934;2023-07-20T11:29:23;13.40;99.90
20200;DHT22;36284;37.236;-121.934;2023-07-20T11:31:51;13.40;99.90
20200;DHT22;36284;37.236;-121.934;2023-07-20T11:34:20;13.50;99.90
20200;DHT22;36284;37.236;-121.934;2023-07-20T11:36:49;13.40;99.90
20200;DHT22;36284;37.236;-121.934;2023-07-20T11:39:18;13.30;99.90
20200;DHT22;36284;37.236;-121.934;2023-07-20T11:41:55;13.30;99.90
20200;DHT22;36284;37.236;-121.934;2023-07-20T11:44:26;13.30;99.90
20200;DHT22;36284;37.236;-121.934;2023-07-20T11:47:10;13.20;99.90
20200;DHT22;36284;37.236;-121.934;2023-07-20T11:49:40;13.10;99.90
20200;DHT22;36284;37.236;-121.934;2023-07-20T11:52:11;13.20;99.90
20200;DHT22;36284;37.236;-121.934;2023-07-20T11:54:39;13.20;99.90
20200;DHT22;36284;37.236;-121.934;2023-07-20T11:57:06;13.20;99.90
20200;DHT22;36284;37.236;-121.934;2023-07-20T11:59:34;13.10;99.90
20200;DHT22;36284;37.236;-121.934;2023-07-20T12:02:05;13.00;99.90
20200;DHT22;36284;37.236;-121.934;2023-07-20T12:04:32;13.00;99.90
20200;DHT22;36284;37.236;-121.934;2023-07-20T12:07:00;13.00;99.90
20200;DHT22;36284;37.236;-121.934;2023-07-20T12:09:27;12.90;99.90
20200;DHT22;36284;37.236;-121.934;2023-07-20T12:11:54;13.00;99.90
20200;DHT22;36284;37.236;-121.934;2023-07-20T12:14:25;12.90;99.90
20200;DHT22;36284;37.236;-121.934;2023-07-20T12:16:53;13.00;99.90
20200;DHT22;36284;37.236;-121.934;2023-07-20T12:19:21;12.90;99.90
20200;DHT22;36284;37.236;-121.934;2023-07-20T12:21:57;12.80;99.90
20200;DHT22;36284;37.236;-121.934;2023-07-20T12:24:28;12.70;99.90
20200;DHT22;36284;37.236;-121.934;2023-07-20T12:26:59;12.60;99.90
20200;DHT22;36284;37.236;-121.934;2023-07-20T12:29:26;12.50;99.90
20200;DHT22;36284;37.236;-121.934;2023-07-20T12:31:53;12.60;99.90
20200;DHT22;36284;37.236;-121.934;2023-07-20T12:34:20;12.60;99.90
20200;DHT22;36284;37.236;-121.934;2023-07-20T12:36:47;12.60;99.90
20200;DHT22;36284;37.236;-121.934;2023-07-20T12:39:14;12.60;99.90
20200;DHT22;36284;37.236;-121.934;2023-07-20T12:41:41;12.60;99.90
20200;DHT22;36284;37.236;-121.934;2023-07-20T12:44:07;12.60;99.90
20200;DHT22;36284;37.236;-121.934;2023-07-20T12:46:34;12.70;99.90
20200;DHT22;36284;37.236;-121.934;2023-07-20T12:49:03;12.60;99.90
20200;DHT22;36284;37.236;-121.934;2023-07-20T12:51:30;12.60;99.90
20200;DHT22;36284;37.236;-121.934;2023-07-20T12:53:57;12.60;99.90
20200;DHT22;36284;37.236;-121.934;2023-07-20T12:56:24;12.60;99.90
20200;DHT22;36284;37.236;-121.934;2023-07-20T12:58:51;12.60;99.90
20200;DHT22;36284;37.236;-121.934;2023-07-20T13:01:18;12.60;99.90
20200;DHT22;36284;37.236;-121.934;2023-07-20T13:03:45;12.60;99.90
20200;DHT22;36284;37.236;-121.934;2023-07-20T13:06:12;12.60;99.90
20200;DHT22;36284;37.236;-121.934;2023-07-20T13:08:39;12.60;99.90
20200;DHT22;36284;37.236;-121.934;2023-07-20T13:11:06;12.60;99.90
20200;DHT22;36284;37.236;-121.934;2023-07-20T13:13:33;12.60;99.90
20200;DHT22;36284;37.236;-121.934;2023-07-20T13:16:00;12.40;99.90
20200;DHT22;36284;37.236;-121.934;2023-07-20T13:18:27;12.50;99.90
20200;DHT22;36284;37.236;-121.934;2023-07-20T13:20:54;12.60;99.90
20200;DHT22;36284;37.236;-121.934;2023-07-20T13:23:21;12.60;99.90
20200;DHT22;36284;37.236;-121.934;2023-07-20T13:25:48;12.60;99.90
20200;DHT22;36284;37.236;-121.934;2023-07-20T13:28:15;12.70;99.90
20200;DHT22;36284;37.236;-121.934;2023-07-20T13:30:42;12.70;99.90
20200;DHT22;36284;37.236;-121.934;2023-07-20T13:33:11;12.90;99.90
20200;DHT22;36284;37.236;-121.934;2023-07-20T13:35:38;13.20;99.90
20200;DHT22;36284;37.236;-121.934;2023-07-20T13:38:05;13.30;99.90
20200;DHT22;36284;37.236;-121.934;2023-07-20T13:40:32;13.30;99.90
20200;DHT22;36284;37.236;-121.934;2023-07-20T13:42:59;13.60;99.90
20200;DHT22;36284;37.236;-121.934;2023-07-20T13:45:26;13.70;99.90
20200;DHT22;36284;37.236;-121.934;2023-07-20T13:47:53;13.80;99.90
20200;DHT22;36284;37.236;-121.934;2023-07-20T13:50:19;13.90;99.90
20200;DHT22;36284;37.236;-121.934;2023-07-20T13:52:47;14.00;99.90
20200;DHT22;36284;37.236;-121.934;2023-07-20T13:55:14;14.10;99.90
20200;DHT22;36284;37.236;-121.934;2023-07-20T13:57:41;14.20;99.90
20200;DHT22;36284;37.236;-121.934;2023-07-20T14:00:08;14.20;99.90
20200;DHT22;36284;37.236;-121.934;2023-07-20T14:02:37;14.10;99.90
20200;DHT22;36284;37.236;-121.934;2023-07-20T14:05:04;14.20;99.90
20200;DHT22;36284;37.236;-121.934;2023-07-20T14:07:32;14.20;99.90
20200;DHT22;36284;37.236;-121.934;2023-07-20T14:09:59;14.60;99.90
20200;DHT22;36284;37.236;-121.934;2023-07-20T14:12:26;14.60;99.90
20200;DHT22;36284;37.236;-121.934;2023-07-20T14:14:54;14.70;99.90
20200;DHT22;36284;37.236;-121.934;2023-07-20T14:17:22;14.70;99.90
20200;DHT22;36284;37.236;-121.934;2023-07-20T14:19:49;14.90;99.90
20200;DHT22;36284;37.236;-121.934;2023-07-20T14:22:17;15.10;99.90
20200;DHT22;36284;37.236;-121.934;2023-07-20T14:24:44;15.10;99.90
20200;DHT22;36284;37.236;-121.934;2023-07-20T14:27:11;15.20;99.90
20200;DHT22;36284;37.236;-121.934;2023-07-20T14:29:38;15.40;99.90
20200;DHT22;36284;37.236;-121.934;2023-07-20T14:32:06;15.30;99.90
20200;DHT22;36284;37.236;-121.934;2023-07-20T14:34:33;15.40;99.90
20200;DHT22;36284;37.236;-121.934;2023-07-20T14:37:02;15.70;99.90
20200;DHT22;36284;37.236;-121.934;2023-07-20T14:39:30;15.90;99.90
20200;DHT22;36284;37.236;-121.934;2023-07-20T14:41:58;15.70;99.90
20200;DHT22;36284;37.236;-121.934;2023-07-20T14:44:25;16.00;99.90
20200;DHT22;36284;37.236;-121.934;2023-07-20T14:46:51;16.40;99.90
20200;DHT22;36284;37.236;-121.934;2023-07-20T14:49:18;16.60;99.90
20200;DHT22;36284;37.236;-121.934;2023-07-20T14:51:46;16.40;99.90
20200;DHT22;36284;37.236;-121.934;2023-07-20T14:54:13;16.70;99.90
20200;DHT22;36284;37.236;-121.934;2023-07-20T14:56:49;17.10;99.90
20200;DHT22;36284;37.236;-121.934;2023-07-20T14:59:20;17.50;99.90
20200;DHT22;36284;37.236;-121.934;2023-07-20T15:01:47;18.40;99.90
20200;DHT22;36284;37.236;-121.934;2023-07-20T15:04:14;18.40;99.90
20200;DHT22;36284;37.236;-121.934;2023-07-20T15:06:41;18.70;99.90
20200;DHT22;36284;37.236;-121.934;2023-07-20T15:09:09;19.20;99.90
20200;DHT22;36284;37.236;-121.934;2023-07-20T15:11:36;19.70;99.90
20200;DHT22;36284;37.236;-121.934;2023-07-20T15:14:03;19.40;99.90
20200;DHT22;36284;37.236;-121.934;2023-07-20T15:16:30;19.70;99.90